createdAt,value
2017-06-30T00:01:12.307Z,73.80
2017-06-30T00:03:39.794Z,74.20
2017-06-30T00:06:07.265Z,74.00
2017-06-30T00:08:35.524Z,74.30
2017-06-30T00:11:03.008Z,74.30
2017-06-30T00:13:30.575Z,74.30
2017-06-30T00:15:58.085Z,74.40
2017-06-30T00:18:25.586Z,74.60
2017-06-30T00:20:53.067Z,74.30
2017-06-30T00:23:20.547Z,75.20
2017-06-30T00:25:48.071Z,74.80
2017-06-30T00:28:15.564Z,74.50
2017-06-30T00:30:43.058Z,74.20
2017-06-30T00:33:11.297Z,74.90
2017-06-30T00:35:38.788Z,74.80
2017-06-30T00:38:06.270Z,74.50
2017-06-30T00:40:33.770Z,74.60
2017-06-30T00:43:01.274Z,74.70
2017-06-30T00:45:29.536Z,74.20
2017-06-30T00:47:57.826Z,74.60
2017-06-30T00:50:26.078Z,74.40
2017-06-30T01:05:40.674Z,74.40
2017-06-30T01:08:08.180Z,74.60
2017-06-30T01:10:35.646Z,74.40
2017-06-30T01:13:03.130Z,74.30
2017-06-30T01:15:31.390Z,74.40
2017-06-30T01:17:59.643Z,74.60
2017-06-30T01:20:27.127Z,74.50
2017-06-30T01:22:55.376Z,74.40
2017-06-30T01:25:22.863Z,74.30
2017-06-30T01:27:51.100Z,74.40
2017-06-30T01:30:18.587Z,74.40
2017-06-30T01:32:46.063Z,74.70
2017-06-30T01:35:13.564Z,75.00
2017-06-30T01:37:41.046Z,75.10
2017-06-30T01:40:08.535Z,75.40
2017-06-30T01:42:36.028Z,75.80
2017-06-30T01:45:03.519Z,75.80
2017-06-30T01:47:31.023Z,75.60
2017-06-30T01:49:58.490Z,75.70
2017-06-30T01:52:25.974Z,75.60
2017-06-30T01:54:53.469Z,75.60
2017-06-30T01:57:21.720Z,75.20
2017-06-30T01:59:49.212Z,75.20
2017-06-30T02:02:17.481Z,74.90
2017-06-30T02:04:45.733Z,75.00
2017-06-30T02:07:13.231Z,74.90
2017-06-30T02:09:40.715Z,74.90
2017-06-30T02:12:08.202Z,74.90
2017-06-30T02:14:35.690Z,75.10
2017-06-30T02:17:03.932Z,75.30
2017-06-30T02:19:31.414Z,75.20
2017-06-30T02:21:58.894Z,75.10
2017-06-30T02:24:26.391Z,74.90
2017-06-30T02:26:53.888Z,74.80
2017-06-30T02:29:21.489Z,74.90
2017-06-30T02:31:48.960Z,74.60
2017-06-30T02:34:16.445Z,74.70
2017-06-30T02:36:43.927Z,75.00
2017-06-30T02:39:12.190Z,75.20
2017-06-30T02:41:39.661Z,75.10
2017-06-30T02:44:07.162Z,75.40
2017-06-30T02:46:34.649Z,74.90
2017-06-30T02:49:02.177Z,75.40
2017-06-30T02:51:29.684Z,75.40
2017-06-30T02:53:57.358Z,75.50
2017-06-30T02:56:25.613Z,76.10
2017-06-30T02:58:53.255Z,76.00
2017-06-30T03:01:20.739Z,76.40
2017-06-30T03:03:48.223Z,76.30
2017-06-30T03:06:16.481Z,76.60
2017-06-30T03:08:44.735Z,76.30
2017-06-30T03:11:12.215Z,76.20
2017-06-30T03:13:40.455Z,76.20
2017-06-30T03:16:07.939Z,76.20
2017-06-30T03:18:35.415Z,76.60
2017-06-30T03:21:03.698Z,80.10
2017-06-30T03:23:31.938Z,81.00
2017-06-30T03:25:59.452Z,80.90
2017-06-30T03:28:26.941Z,81.20
2017-06-30T03:30:54.438Z,80.40
2017-06-30T03:33:22.718Z,81.00
2017-06-30T03:35:50.963Z,81.70
2017-06-30T03:38:18.458Z,81.70
2017-06-30T03:40:46.715Z,81.20
2017-06-30T03:43:14.978Z,81.10
2017-06-30T03:45:42.453Z,81.10
2017-06-30T03:48:09.932Z,81.80
2017-06-30T03:50:37.490Z,82.80
2017-06-30T03:53:04.979Z,83.40
2017-06-30T03:55:32.471Z,82.60
2017-06-30T03:57:59.980Z,83.70
2017-06-30T04:00:27.458Z,84.30
2017-06-30T04:02:54.936Z,82.30
2017-06-30T04:05:22.663Z,82.30
2017-06-30T04:07:50.164Z,82.50
2017-06-30T04:10:17.669Z,82.30
2017-06-30T04:12:45.139Z,83.00
2017-06-30T04:15:12.629Z,82.90
2017-06-30T04:17:40.109Z,81.20
2017-06-30T04:20:07.603Z,80.70
2017-06-30T04:22:35.139Z,81.40
2017-06-30T04:25:03.415Z,81.60
2017-06-30T04:27:31.678Z,83.00
2017-06-30T04:29:59.157Z,83.60
2017-06-30T04:32:27.415Z,80.50
2017-06-30T04:34:55.670Z,81.60
2017-06-30T04:37:23.170Z,81.00
2017-06-30T04:39:50.644Z,81.20
2017-06-30T04:42:18.137Z,83.10
2017-06-30T04:44:45.623Z,81.90
2017-06-30T04:47:13.142Z,81.80
2017-06-30T04:49:40.645Z,81.00
2017-06-30T04:52:08.896Z,81.40
2017-06-30T04:54:36.396Z,81.30
2017-06-30T04:57:03.886Z,79.80
2017-06-30T04:59:31.379Z,81.00
2017-06-30T05:01:58.854Z,81.40
2017-06-30T05:04:27.119Z,81.20
2017-06-30T05:06:54.586Z,81.10
2017-06-30T05:09:26.040Z,80.80
2017-06-30T05:11:54.279Z,81.00
2017-06-30T05:14:21.778Z,80.60
2017-06-30T05:16:50.022Z,79.80
2017-06-30T05:19:17.506Z,79.70
2017-06-30T05:21:45.765Z,79.00
2017-06-30T05:24:13.240Z,78.90
2017-06-30T05:26:41.532Z,77.90
2017-06-30T05:29:09.011Z,77.80
2017-06-30T05:31:36.497Z,78.70
2017-06-30T05:34:03.983Z,78.00
2017-06-30T05:36:31.583Z,77.90
2017-06-30T05:38:59.071Z,77.40
2017-06-30T05:41:26.562Z,77.30
2017-06-30T05:43:54.063Z,75.90
2017-06-30T05:46:21.535Z,76.40
2017-06-30T05:48:49.031Z,75.80
2017-06-30T05:51:16.518Z,75.90
2017-06-30T05:53:44.024Z,75.20
2017-06-30T05:56:11.503Z,73.00
2017-06-30T05:58:39.015Z,73.00
2017-06-30T06:01:06.506Z,74.00
2017-06-30T06:03:34.033Z,72.50
2017-06-30T06:06:01.514Z,72.20
2017-06-30T06:08:29.012Z,71.20
2017-06-30T06:10:56.499Z,70.60
2017-06-30T06:13:23.986Z,71.50
2017-06-30T06:18:45.027Z,69.60
2017-06-30T06:21:12.507Z,69.50
2017-06-30T06:23:40.753Z,70.40
2017-06-30T06:26:08.243Z,70.30
2017-06-30T06:28:36.507Z,69.30
2017-06-30T06:31:04.025Z,69.20
2017-06-30T06:33:31.556Z,69.80
2017-06-30T06:35:59.042Z,67.70
2017-06-30T06:38:26.530Z,68.80
2017-06-30T06:40:54.017Z,68.10
2017-06-30T06:43:22.294Z,67.30
2017-06-30T06:45:49.783Z,67.20
2017-06-30T06:48:17.287Z,65.50
2017-06-30T06:50:44.773Z,66.70
2017-06-30T06:53:12.269Z,66.00
2017-06-30T06:55:39.758Z,66.10
2017-06-30T06:58:07.249Z,66.40
2017-06-30T07:00:34.792Z,65.30
2017-06-30T07:03:03.062Z,65.00
2017-06-30T07:05:31.318Z,64.50
2017-06-30T07:07:58.805Z,64.40
2017-06-30T07:10:27.080Z,65.40
2017-06-30T07:12:55.329Z,64.00
2017-06-30T07:15:22.849Z,64.00
2017-06-30T07:17:50.342Z,63.00
2017-06-30T07:20:17.821Z,64.30
2017-06-30T07:22:46.086Z,62.00
2017-06-30T07:25:13.574Z,62.00
2017-06-30T07:27:41.068Z,64.40
2017-06-30T07:30:08.552Z,62.20
2017-06-30T07:32:36.044Z,62.80
2017-06-30T07:35:04.332Z,63.20
2017-06-30T07:37:31.824Z,63.20
2017-06-30T07:39:59.329Z,61.50
2017-06-30T07:42:27.594Z,61.60
2017-06-30T07:44:55.084Z,61.60
2017-06-30T07:47:22.570Z,62.90
2017-06-30T07:49:50.082Z,62.70
2017-06-30T07:52:18.335Z,59.50
2017-06-30T07:54:45.823Z,59.40
2017-06-30T07:57:13.301Z,59.70
2017-06-30T07:59:40.791Z,58.10
2017-06-30T08:02:08.270Z,58.70
2017-06-30T08:04:35.785Z,59.50
2017-06-30T08:07:03.279Z,59.80
2017-06-30T08:09:30.750Z,58.80
2017-06-30T08:11:59.035Z,59.40
2017-06-30T08:14:27.292Z,58.90
2017-06-30T08:16:54.784Z,59.00
2017-06-30T08:19:22.269Z,58.40
2017-06-30T08:21:49.805Z,58.70
2017-06-30T08:24:17.285Z,58.00
2017-06-30T08:26:44.800Z,58.30
2017-06-30T08:29:13.042Z,57.40
2017-06-30T08:31:40.531Z,57.30
2017-06-30T08:34:08.780Z,57.60
2017-06-30T08:36:36.265Z,57.70
2017-06-30T08:39:04.539Z,58.70
2017-06-30T08:41:32.014Z,58.20
2017-06-30T08:44:00.285Z,56.90
2017-06-30T08:46:28.533Z,56.20
2017-06-30T08:48:56.006Z,56.10
2017-06-30T08:51:24.269Z,56.30
2017-06-30T08:53:51.768Z,56.20
2017-06-30T08:56:19.263Z,56.80
2017-06-30T08:58:46.777Z,55.60
2017-06-30T09:01:14.330Z,53.80
2017-06-30T09:03:42.575Z,55.40
2017-06-30T09:06:10.086Z,55.40
2017-06-30T09:08:37.571Z,56.60
2017-06-30T09:11:05.062Z,54.90
2017-06-30T09:13:32.540Z,55.10
2017-06-30T09:16:00.035Z,54.60
2017-06-30T09:18:27.516Z,54.50
2017-06-30T09:20:55.010Z,55.50
2017-06-30T09:23:23.251Z,55.20
2017-06-30T09:25:50.765Z,55.20
2017-06-30T09:28:18.237Z,55.60
2017-06-30T09:30:45.734Z,54.20
2017-06-30T09:33:13.212Z,54.20
2017-06-30T09:35:41.467Z,54.00
2017-06-30T09:38:08.956Z,53.90
2017-06-30T09:40:37.208Z,52.30
2017-06-30T09:43:04.700Z,52.20
2017-06-30T09:45:32.174Z,52.50
2017-06-30T09:47:59.658Z,53.30
2017-06-30T09:50:27.160Z,51.80
2017-06-30T09:52:55.412Z,55.60
2017-06-30T09:55:22.900Z,55.50
2017-06-30T09:57:50.388Z,55.00
2017-06-30T10:00:17.871Z,54.70
2017-06-30T10:02:45.383Z,54.00
2017-06-30T10:05:12.884Z,53.50
2017-06-30T10:07:40.369Z,52.90
2017-06-30T10:10:08.615Z,52.60
2017-06-30T10:12:36.097Z,52.90
2017-06-30T10:15:03.587Z,51.20
2017-06-30T10:17:31.108Z,52.40
2017-06-30T10:19:58.606Z,52.80
2017-06-30T10:22:26.090Z,52.80
2017-06-30T10:24:53.575Z,52.80
2017-06-30T10:27:21.072Z,52.50
2017-06-30T10:29:48.567Z,52.70
2017-06-30T10:32:16.042Z,51.80
2017-06-30T10:34:43.553Z,51.80
2017-06-30T10:37:11.028Z,51.00
2017-06-30T10:39:38.522Z,50.60
2017-06-30T10:42:06.007Z,48.50
2017-06-30T10:44:34.270Z,49.30
2017-06-30T10:47:01.792Z,49.30
2017-06-30T10:49:29.294Z,49.00
2017-06-30T10:51:57.548Z,50.60
2017-06-30T10:54:25.027Z,50.50
2017-06-30T10:56:53.300Z,50.30
2017-06-30T10:59:20.788Z,50.20
2017-06-30T11:01:48.281Z,50.00
2017-06-30T11:04:15.761Z,51.00
2017-06-30T11:06:43.253Z,50.10
2017-06-30T11:09:10.751Z,49.50
2017-06-30T11:11:38.230Z,49.90
2017-06-30T11:14:05.726Z,48.80
2017-06-30T11:16:33.221Z,50.30
2017-06-30T11:19:00.710Z,49.70
2017-06-30T11:21:28.203Z,49.30
2017-06-30T11:23:55.684Z,50.00
2017-06-30T11:26:23.174Z,47.70
2017-06-30T11:28:50.708Z,47.30
2017-06-30T11:31:18.198Z,46.40
2017-06-30T11:33:45.699Z,48.00
2017-06-30T11:36:13.184Z,49.40
2017-06-30T11:38:40.662Z,47.30
2017-06-30T11:41:08.150Z,47.10
2017-06-30T11:43:36.396Z,46.80
2017-06-30T11:46:03.880Z,46.90
2017-06-30T11:48:32.128Z,47.20
2017-06-30T11:50:59.640Z,47.20
2017-06-30T11:53:27.131Z,46.30
2017-06-30T11:55:54.630Z,45.10
2017-06-30T11:58:22.880Z,44.60
2017-06-30T12:00:50.387Z,44.40
2017-06-30T12:03:17.863Z,44.80
2017-06-30T12:05:45.483Z,46.00
2017-06-30T12:08:18.566Z,46.50
2017-06-30T12:10:46.034Z,45.90
2017-06-30T12:13:14.305Z,43.10
2017-06-30T12:15:42.577Z,43.90
2017-06-30T12:18:10.079Z,43.90
2017-06-30T12:20:37.567Z,44.60
2017-06-30T12:23:05.078Z,42.90
2017-06-30T12:25:32.573Z,43.00
2017-06-30T12:28:00.084Z,44.60
2017-06-30T12:30:28.339Z,46.10
2017-06-30T12:32:55.894Z,46.10
2017-06-30T12:35:23.415Z,46.60
2017-06-30T12:37:50.899Z,45.70
2017-06-30T12:40:18.395Z,45.30
2017-06-30T12:42:46.643Z,45.60
2017-06-30T12:45:14.140Z,45.50
2017-06-30T12:47:41.641Z,45.30
2017-06-30T12:50:09.136Z,45.00
2017-06-30T12:52:37.412Z,46.20
2017-06-30T12:55:05.663Z,43.90
2017-06-30T12:57:33.140Z,43.90
2017-06-30T13:00:01.402Z,43.10
2017-06-30T13:02:28.983Z,43.10
2017-06-30T13:04:57.249Z,43.50
2017-06-30T13:07:24.724Z,43.40
2017-06-30T13:09:52.960Z,43.00
2017-06-30T13:12:20.465Z,43.00
2017-06-30T13:14:47.958Z,42.90
2017-06-30T13:17:15.463Z,42.90
2017-06-30T13:19:43.716Z,43.00
2017-06-30T13:22:11.203Z,42.90
2017-06-30T13:24:39.444Z,41.90
2017-06-30T13:27:06.937Z,41.90
2017-06-30T13:29:35.190Z,41.00
2017-06-30T13:32:02.701Z,41.00
2017-06-30T13:34:30.187Z,41.30
2017-06-30T13:36:57.786Z,40.00
2017-06-30T13:39:26.047Z,39.80
2017-06-30T13:41:53.527Z,39.80
2017-06-30T13:44:21.031Z,39.70
2017-06-30T13:46:48.517Z,42.00
2017-06-30T13:49:15.989Z,41.90
2017-06-30T13:51:44.241Z,39.40
2017-06-30T13:54:11.746Z,39.40
2017-06-30T13:56:39.222Z,40.30
2017-06-30T13:59:06.706Z,41.10
2017-06-30T14:01:34.195Z,39.40
2017-06-30T14:04:02.451Z,42.10
2017-06-30T14:06:29.931Z,41.40
2017-06-30T14:08:58.318Z,40.00
2017-06-30T14:11:26.577Z,40.60
2017-06-30T14:13:54.054Z,40.50
2017-06-30T14:16:22.365Z,41.40
2017-06-30T14:18:49.879Z,41.30
2017-06-30T14:21:18.138Z,41.20
2017-06-30T14:23:45.631Z,41.20
2017-06-30T14:26:13.130Z,39.80
2017-06-30T14:28:40.606Z,41.10
2017-06-30T14:31:08.137Z,40.20
2017-06-30T14:33:35.618Z,41.30
2017-06-30T14:36:03.103Z,40.00
2017-06-30T14:38:31.383Z,40.90
2017-06-30T14:40:59.672Z,41.30
2017-06-30T14:43:27.171Z,40.70
2017-06-30T14:45:54.643Z,41.00
2017-06-30T14:48:22.138Z,42.50
2017-06-30T14:50:50.383Z,41.10
2017-06-30T14:53:17.887Z,41.00
2017-06-30T14:55:45.379Z,41.10
2017-06-30T14:58:12.879Z,41.20
2017-06-30T15:00:41.124Z,40.60
2017-06-30T15:03:08.625Z,40.60
2017-06-30T15:05:36.111Z,38.70
2017-06-30T15:08:03.618Z,40.10
2017-06-30T15:10:31.107Z,39.40
2017-06-30T15:12:58.646Z,39.40
2017-06-30T15:15:26.898Z,40.30
2017-06-30T15:17:54.373Z,40.60
2017-06-30T15:20:21.862Z,39.90
2017-06-30T15:22:49.585Z,39.40
2017-06-30T15:25:17.074Z,39.70
2017-06-30T15:27:44.574Z,38.70
2017-06-30T15:30:12.090Z,38.00
2017-06-30T15:32:40.349Z,38.40
2017-06-30T15:35:08.636Z,38.90
2017-06-30T15:37:36.880Z,39.20
2017-06-30T15:40:04.370Z,39.10
2017-06-30T15:42:32.627Z,38.00
2017-06-30T15:45:00.104Z,38.00
2017-06-30T15:47:28.376Z,38.00
2017-06-30T15:49:56.631Z,37.20
2017-06-30T15:52:24.119Z,37.20
2017-06-30T15:54:51.592Z,37.40
2017-06-30T15:57:19.109Z,38.10
2017-06-30T15:59:46.580Z,36.90
2017-06-30T16:02:14.851Z,35.00
2017-06-30T16:04:43.124Z,36.40
2017-06-30T16:07:10.635Z,35.90
2017-06-30T16:09:38.160Z,34.60
2017-06-30T16:12:06.440Z,36.50
2017-06-30T16:14:33.941Z,36.40
2017-06-30T16:17:01.432Z,36.30
2017-06-30T16:19:28.927Z,37.00
2017-06-30T16:21:56.415Z,37.20
2017-06-30T16:24:23.917Z,36.30
2017-06-30T16:26:52.181Z,37.70
2017-06-30T16:29:19.683Z,37.60
2017-06-30T16:31:48.096Z,37.80
2017-06-30T16:34:15.581Z,38.00
2017-06-30T16:36:43.848Z,39.30
2017-06-30T16:39:11.327Z,39.30
2017-06-30T16:41:39.580Z,40.90
2017-06-30T16:44:07.062Z,40.80
2017-06-30T16:46:34.588Z,41.70
2017-06-30T16:49:02.076Z,42.60
2017-06-30T16:51:30.338Z,43.10
2017-06-30T16:53:57.824Z,43.10
2017-06-30T16:56:25.318Z,43.50
2017-06-30T16:58:52.796Z,44.50
2017-06-30T17:01:20.280Z,44.00
2017-06-30T17:03:48.540Z,44.70
2017-06-30T17:06:16.025Z,44.70
2017-06-30T17:08:43.521Z,44.80
2017-06-30T17:11:10.991Z,44.90
2017-06-30T17:13:38.485Z,44.80
2017-06-30T17:16:06.727Z,41.70
2017-06-30T17:18:34.222Z,41.50
2017-06-30T17:21:02.467Z,41.90
2017-06-30T17:23:29.975Z,41.90
2017-06-30T17:25:57.531Z,43.10
2017-06-30T17:28:25.023Z,44.70
2017-06-30T17:30:52.518Z,46.50
2017-06-30T17:33:20.011Z,46.00
2017-06-30T17:35:47.513Z,46.40
2017-06-30T17:38:15.052Z,54.40
2017-06-30T17:40:42.537Z,56.30
2017-06-30T17:43:10.026Z,55.60
2017-06-30T17:45:38.288Z,61.30
2017-06-30T17:48:05.770Z,61.10
2017-06-30T17:50:34.051Z,51.70
2017-06-30T17:53:01.529Z,51.60
2017-06-30T17:55:29.010Z,53.60
2017-06-30T17:57:56.493Z,54.50
2017-06-30T18:00:30.191Z,53.50
2017-06-30T18:02:57.680Z,52.80
2017-06-30T18:05:25.157Z,52.00
2017-06-30T18:07:52.649Z,51.50
2017-06-30T18:10:20.174Z,50.90
2017-06-30T18:12:47.662Z,50.60
2017-06-30T18:15:15.142Z,50.30
2017-06-30T18:17:42.654Z,51.00
2017-06-30T18:20:10.139Z,51.20
2017-06-30T18:22:37.627Z,51.60
2017-06-30T18:25:05.868Z,53.60
2017-06-30T18:27:33.348Z,53.00
2017-06-30T18:30:00.827Z,53.40
2017-06-30T18:32:29.091Z,55.20
2017-06-30T18:34:56.596Z,55.20
2017-06-30T18:37:24.115Z,55.40
2017-06-30T18:39:52.379Z,57.20
2017-06-30T18:42:20.668Z,57.90
2017-06-30T18:44:48.926Z,59.00
2017-06-30T18:47:16.406Z,59.00
2017-06-30T18:49:44.646Z,59.40
2017-06-30T18:52:12.132Z,59.40
2017-06-30T18:54:40.388Z,60.50
2017-06-30T18:57:07.891Z,60.30
2017-06-30T18:59:35.385Z,60.50
2017-06-30T19:02:02.881Z,61.20
2017-06-30T19:04:31.133Z,62.40
2017-06-30T19:06:58.622Z,61.90
2017-06-30T19:09:26.869Z,62.40
2017-06-30T19:11:54.363Z,62.40
2017-06-30T19:14:21.878Z,62.70
2017-06-30T19:16:49.378Z,62.70
2017-06-30T19:19:17.620Z,62.80
2017-06-30T19:21:45.113Z,62.70
2017-06-30T19:24:13.378Z,63.70
2017-06-30T19:26:41.635Z,64.10
2017-06-30T19:29:09.151Z,64.10
2017-06-30T19:31:36.631Z,63.90
2017-06-30T19:34:04.200Z,63.80
2017-06-30T19:36:31.700Z,64.10
2017-06-30T19:38:59.978Z,64.60
2017-06-30T19:41:28.227Z,65.30
2017-06-30T19:43:55.704Z,65.10
2017-06-30T19:46:23.984Z,65.90
2017-06-30T19:48:51.486Z,65.90
2017-06-30T19:51:18.999Z,65.80
2017-06-30T19:53:47.237Z,66.70
2017-06-30T19:56:14.737Z,66.60
2017-06-30T19:58:42.985Z,67.50
2017-06-30T20:01:10.475Z,67.40
2017-06-30T20:03:37.966Z,67.90
2017-06-30T20:06:05.479Z,67.90
2017-06-30T20:08:33.752Z,67.70
2017-06-30T20:11:02.046Z,68.00
2017-06-30T20:13:29.565Z,67.50
2017-06-30T20:15:57.054Z,67.70
2017-06-30T20:18:24.568Z,67.90
2017-06-30T20:20:52.043Z,67.90
2017-06-30T20:23:19.522Z,68.40
2017-06-30T20:25:47.775Z,68.70
2017-06-30T20:28:15.283Z,68.60
2017-06-30T20:30:42.766Z,68.70
2017-06-30T20:33:10.253Z,68.70
2017-06-30T20:35:37.767Z,68.60
2017-06-30T20:38:05.266Z,68.70
2017-06-30T20:40:32.740Z,68.80
2017-06-30T20:43:00.998Z,69.40
2017-06-30T20:45:28.472Z,69.00
2017-06-30T20:47:56.743Z,70.10
2017-06-30T20:50:24.226Z,69.80
2017-06-30T20:52:51.731Z,70.30
2017-06-30T20:55:19.241Z,70.60
2017-06-30T20:57:46.714Z,70.80
2017-06-30T21:00:14.234Z,70.80
2017-06-30T21:02:41.714Z,71.10
2017-06-30T21:05:09.202Z,71.50
2017-06-30T21:07:36.689Z,71.60
2017-06-30T21:10:04.185Z,72.30
2017-06-30T21:12:32.427Z,73.10
2017-06-30T21:14:59.929Z,73.10
2017-06-30T21:17:27.415Z,73.60
2017-06-30T21:19:54.892Z,73.70
2017-06-30T21:22:23.274Z,74.00
2017-06-30T21:24:50.759Z,74.40
2017-06-30T21:27:19.031Z,74.60
2017-06-30T21:29:46.518Z,74.50
2017-06-30T21:32:14.031Z,74.90
2017-06-30T21:34:41.512Z,75.20
2017-06-30T21:37:09.763Z,76.30
2017-06-30T21:39:37.243Z,76.20
2017-06-30T21:42:05.508Z,76.10
2017-06-30T21:44:32.988Z,76.00
2017-06-30T21:47:01.228Z,76.20
2017-06-30T21:49:28.748Z,76.20
2017-06-30T21:51:56.238Z,76.00
2017-06-30T21:54:23.734Z,76.20
2017-06-30T21:56:51.978Z,75.80
2017-06-30T21:59:19.464Z,75.80
2017-06-30T22:01:47.710Z,75.30
2017-06-30T22:04:15.194Z,75.30
2017-06-30T22:06:43.437Z,74.90
2017-06-30T22:09:10.939Z,74.90
2017-06-30T22:11:39.193Z,73.80
2017-06-30T22:14:06.658Z,73.70
2017-06-30T22:16:34.925Z,73.10
2017-06-30T22:19:17.492Z,72.80
2017-06-30T22:21:45.374Z,72.70
2017-06-30T22:24:12.849Z,72.30
2017-06-30T22:26:40.335Z,72.60
2017-06-30T22:29:08.581Z,72.60
2017-06-30T22:31:36.067Z,72.60
2017-06-30T22:34:04.305Z,72.70
2017-06-30T22:36:31.798Z,72.70
2017-06-30T22:39:00.049Z,72.30
2017-06-30T22:41:27.530Z,72.30
2017-06-30T22:43:55.778Z,72.80
2017-06-30T22:46:23.288Z,72.70
2017-06-30T22:48:50.788Z,73.20
2017-06-30T22:51:18.272Z,73.70
2017-06-30T22:53:45.764Z,73.70
2017-06-30T22:56:13.241Z,74.30
2017-06-30T22:58:40.792Z,74.50
2017-06-30T23:01:08.267Z,74.30
2017-06-30T23:03:35.757Z,74.30
2017-06-30T23:06:03.237Z,74.10
2017-06-30T23:08:31.487Z,74.00
2017-06-30T23:10:58.958Z,73.80
2017-06-30T23:13:26.445Z,73.70
2017-06-30T23:15:53.915Z,74.00
2017-06-30T23:18:21.383Z,74.20
2017-06-30T23:20:48.870Z,74.30
2017-06-30T23:23:16.350Z,74.30
2017-06-30T23:25:44.613Z,74.70
2017-06-30T23:28:12.097Z,74.70
2017-06-30T23:30:40.347Z,74.70
2017-06-30T23:33:07.865Z,74.60
2017-06-30T23:35:35.354Z,74.40
2017-06-30T23:38:02.827Z,74.60
2017-06-30T23:40:30.302Z,74.30
2017-06-30T23:42:58.539Z,74.10
2017-06-30T23:45:26.141Z,74.10
2017-06-30T23:47:53.610Z,74.20
2017-06-30T23:50:21.088Z,74.10
2017-06-30T23:52:48.579Z,73.90
2017-06-30T23:55:16.070Z,73.80
2017-06-30T23:57:44.342Z,73.60
